sensor_id;sensor_type;location;lat;lon;timestamp;pressure;altitude;pressure_sealevel;temperature;humidity
46347;BME280;32057;47.830;19.046;2023-04-22T00:00:03;100062.25;;;7.81;100.00
46347;BME280;32057;47.830;19.046;2023-04-22T00:02:29;100063.16;;;7.81;100.00
46347;BME280;32057;47.830;19.046;2023-04-22T00:04:57;100063.19;;;7.83;100.00
46347;BME280;32057;47.830;19.046;2023-04-22T00:07:22;100063.84;;;7.75;100.00
46347;BME280;32057;47.830;19.046;2023-04-22T00:09:48;100069.47;;;7.59;100.00
46347;BME280;32057;47.830;19.046;2023-04-22T00:12:13;100067.25;;;7.43;100.00
46347;BME280;32057;47.830;19.046;2023-04-22T00:14:39;100062.75;;;7.35;100.00
46347;BME280;32057;47.830;19.046;2023-04-22T00:17:05;100060.28;;;7.40;100.00
46347;BME280;32057;47.830;19.046;2023-04-22T00:19:31;100062.81;;;7.38;100.00
46347;BME280;32057;47.830;19.046;2023-04-22T00:21:57;100057.22;;;7.23;100.00
46347;BME280;32057;47.830;19.046;2023-04-22T00:24:22;100059.63;;;7.18;100.00
46347;BME280;32057;47.830;19.046;2023-04-22T00:26:48;100063.94;;;7.18;100.00
46347;BME280;32057;47.830;19.046;2023-04-22T00:29:13;100066.88;;;7.30;100.00
46347;BME280;32057;47.830;19.046;2023-04-22T00:31:38;100061.88;;;7.36;100.00
46347;BME280;32057;47.830;19.046;2023-04-22T00:34:04;100058.25;;;7.30;100.00
46347;BME280;32057;47.830;19.046;2023-04-22T00:36:29;100065.84;;;7.24;100.00
46347;BME280;32057;47.830;19.046;2023-04-22T00:38:55;100062.38;;;7.23;100.00
46347;BME280;32057;47.830;19.046;2023-04-22T00:41:22;100062.56;;;7.29;100.00
46347;BME280;32057;47.830;19.046;2023-04-22T00:43:47;100065.09;;;7.28;100.00
46347;BME280;32057;47.830;19.046;2023-04-22T00:46:15;100063.44;;;7.30;100.00
46347;BME280;32057;47.830;19.046;2023-04-22T00:48:40;100055.66;;;7.30;100.00
46347;BME280;32057;47.830;19.046;2023-04-22T00:51:06;100064.31;;;7.30;100.00
46347;BME280;32057;47.830;19.046;2023-04-22T00:53:31;100063.38;;;7.28;100.00
46347;BME280;32057;47.830;19.046;2023-04-22T00:55:57;100062.00;;;7.11;100.00
46347;BME280;32057;47.830;19.046;2023-04-22T00:58:27;100057.38;;;7.01;100.00
46347;BME280;32057;47.830;19.046;2023-04-22T01:00:53;100068.09;;;6.84;100.00
46347;BME280;32057;47.830;19.046;2023-04-22T01:03:19;100064.63;;;6.84;100.00
46347;BME280;32057;47.830;19.046;2023-04-22T01:05:46;100071.34;;;6.77;100.00
46347;BME280;32057;47.830;19.046;2023-04-22T01:08:12;100068.75;;;6.77;100.00
46347;BME280;32057;47.830;19.046;2023-04-22T01:10:39;100076.59;;;6.80;100.00
46347;BME280;32057;47.830;19.046;2023-04-22T01:13:05;100077.56;;;6.84;100.00
46347;BME280;32057;47.830;19.046;2023-04-22T01:15:30;100073.47;;;6.90;100.00
46347;BME280;32057;47.830;19.046;2023-04-22T01:17:56;100070.81;;;6.89;100.00
46347;BME280;32057;47.830;19.046;2023-04-22T01:20:23;100071.78;;;6.92;100.00
46347;BME280;32057;47.830;19.046;2023-04-22T01:22:54;100076.34;;;7.00;100.00
46347;BME280;32057;47.830;19.046;2023-04-22T01:25:22;100078.81;;;6.96;100.00
46347;BME280;32057;47.830;19.046;2023-04-22T01:27:48;100079.19;;;6.80;100.00
46347;BME280;32057;47.830;19.046;2023-04-22T01:30:14;100075.59;;;6.76;100.00
46347;BME280;32057;47.830;19.046;2023-04-22T01:32:40;100069.75;;;6.82;100.00
46347;BME280;32057;47.830;19.046;2023-04-22T01:35:06;100072.34;;;6.82;100.00
46347;BME280;32057;47.830;19.046;2023-04-22T01:37:31;100074.94;;;6.82;100.00
46347;BME280;32057;47.830;19.046;2023-04-22T01:39:58;100070.06;;;6.91;100.00
46347;BME280;32057;47.830;19.046;2023-04-22T01:42:24;100081.22;;;6.90;100.00
46347;BME280;32057;47.830;19.046;2023-04-22T01:44:50;100074.44;;;6.94;100.00
46347;BME280;32057;47.830;19.046;2023-04-22T01:47:15;100071.91;;;6.95;100.00
46347;BME280;32057;47.830;19.046;2023-04-22T01:49:41;100076.22;;;6.95;100.00
46347;BME280;32057;47.830;19.046;2023-04-22T01:52:06;100073.47;;;6.90;100.00
46347;BME280;32057;47.830;19.046;2023-04-22T01:54:32;100071.75;;;6.91;100.00
46347;BME280;32057;47.830;19.046;2023-04-22T01:56:58;100074.50;;;6.95;100.00
46347;BME280;32057;47.830;19.046;2023-04-22T01:59:23;100067.34;;;6.88;100.00
46347;BME280;32057;47.830;19.046;2023-04-22T02:01:49;100071.78;;;6.92;100.00
46347;BME280;32057;47.830;19.046;2023-04-22T02:04:14;100066.63;;;6.92;100.00
46347;BME280;32057;47.830;19.046;2023-04-22T02:06:39;100073.56;;;6.93;100.00
46347;BME280;32057;47.830;19.046;2023-04-22T02:09:05;100070.78;;;6.87;100.00
46347;BME280;32057;47.830;19.046;2023-04-22T02:11:30;100073.38;;;6.87;100.00
46347;BME280;32057;47.830;19.046;2023-04-22T02:13:56;100069.88;;;6.85;100.00
46347;BME280;32057;47.830;19.046;2023-04-22T02:16:22;100067.13;;;6.81;100.00
46347;BME280;32057;47.830;19.046;2023-04-22T02:18:47;100067.09;;;6.79;100.00
46347;BME280;32057;47.830;19.046;2023-04-22T02:21:13;100069.47;;;6.73;100.00
46347;BME280;32057;47.830;19.046;2023-04-22T02:23:38;100065.31;;;6.78;100.00
46347;BME280;32057;47.830;19.046;2023-04-22T02:26:04;100066.34;;;6.83;100.00
46347;BME280;32057;47.830;19.046;2023-04-22T02:28:30;100063.03;;;6.87;100.00
46347;BME280;32057;47.830;19.046;2023-04-22T02:30:56;100067.34;;;6.88;100.00
46347;BME280;32057;47.830;19.046;2023-04-22T02:33:21;100066.06;;;6.74;100.00
46347;BME280;32057;47.830;19.046;2023-04-22T02:35:47;100065.44;;;6.81;100.00
46347;BME280;32057;47.830;19.046;2023-04-22T02:38:12;100068.94;;;6.83;100.00
46347;BME280;32057;47.830;19.046;2023-04-22T02:40:38;100071.53;;;6.83;100.00
46347;BME280;32057;47.830;19.046;2023-04-22T02:43:03;100069.56;;;6.76;100.00
46347;BME280;32057;47.830;19.046;2023-04-22T02:45:29;100061.69;;;6.71;100.00
46347;BME280;32057;47.830;19.046;2023-04-22T02:47:54;100061.75;;;6.74;100.00
46347;BME280;32057;47.830;19.046;2023-04-22T02:50:20;100065.19;;;6.73;100.00
46347;BME280;32057;47.830;19.046;2023-04-22T02:52:45;100066.84;;;6.71;100.00
46347;BME280;32057;47.830;19.046;2023-04-22T02:55:11;100069.38;;;6.70;100.00
46347;BME280;32057;47.830;19.046;2023-04-22T02:57:36;100067.09;;;6.52;100.00
46347;BME280;32057;47.830;19.046;2023-04-22T03:00:02;100058.16;;;6.42;100.00
46347;BME280;32057;47.830;19.046;2023-04-22T03:02:28;100066.16;;;6.50;100.00
46347;BME280;32057;47.830;19.046;2023-04-22T03:04:54;100061.84;;;6.50;100.00
46347;BME280;32057;47.830;19.046;2023-04-22T03:07:19;100064.16;;;6.41;100.00
46347;BME280;32057;47.830;19.046;2023-04-22T03:09:45;100064.84;;;6.35;100.00
46347;BME280;32057;47.830;19.046;2023-04-22T03:12:10;100062.91;;;6.30;100.00
46347;BME280;32057;47.830;19.046;2023-04-22T03:14:36;100059.50;;;6.31;100.00
46347;BME280;32057;47.830;19.046;2023-04-22T03:17:01;100059.69;;;6.37;100.00
46347;BME280;32057;47.830;19.046;2023-04-22T03:19:26;100059.00;;;6.41;100.00
46347;BME280;32057;47.830;19.046;2023-04-22T03:21:54;100061.72;;;6.46;100.00
46347;BME280;32057;47.830;19.046;2023-04-22T03:24:21;100058.34;;;6.48;100.00
46347;BME280;32057;47.830;19.046;2023-04-22T03:26:46;100058.72;;;6.61;100.00
46347;BME280;32057;47.830;19.046;2023-04-22T03:29:12;100063.34;;;6.69;100.00
46347;BME280;32057;47.830;19.046;2023-04-22T03:31:37;100066.41;;;6.57;100.00
46347;BME280;32057;47.830;19.046;2023-04-22T03:34:03;100063.81;;;6.57;100.00
46347;BME280;32057;47.830;19.046;2023-04-22T03:36:29;100064.06;;;6.65;100.00
46347;BME280;32057;47.830;19.046;2023-04-22T03:38:55;100067.91;;;6.78;100.00
46347;BME280;32057;47.830;19.046;2023-04-22T03:41:20;100077.72;;;6.88;100.00
46347;BME280;32057;47.830;19.046;2023-04-22T03:43:46;100072.53;;;6.88;100.00
46347;BME280;32057;47.830;19.046;2023-04-22T03:46:11;100074.19;;;6.86;100.00
46347;BME280;32057;47.830;19.046;2023-04-22T03:48:36;100084.47;;;6.83;100.00
46347;BME280;32057;47.830;19.046;2023-04-22T03:51:02;100075.03;;;6.85;100.00
46347;BME280;32057;47.830;19.046;2023-04-22T03:53:30;100081.03;;;6.84;100.00
46347;BME280;32057;47.830;19.046;2023-04-22T03:55:55;100083.31;;;6.75;100.00
46347;BME280;32057;47.830;19.046;2023-04-22T03:58:21;100083.44;;;6.78;100.00
46347;BME280;32057;47.830;19.046;2023-04-22T04:00:46;100085.28;;;6.82;100.00
46347;BME280;32057;47.830;19.046;2023-04-22T04:03:12;100085.38;;;6.85;100.00
46347;BME280;32057;47.830;19.046;2023-04-22T04:05:37;100077.66;;;6.87;100.00
46347;BME280;32057;47.830;19.046;2023-04-22T04:08:03;100083.72;;;6.87;100.00
46347;BME280;32057;47.830;19.046;2023-04-22T04:10:28;100079.41;;;6.88;100.00
46347;BME280;32057;47.830;19.046;2023-04-22T04:12:54;100091.72;;;6.95;100.00
46347;BME280;32057;47.830;19.046;2023-04-22T04:15:20;100081.47;;;6.98;100.00
46347;BME280;32057;47.830;19.046;2023-04-22T04:17:46;100090.25;;;7.03;100.00
46347;BME280;32057;47.830;19.046;2023-04-22T04:20:13;100089.59;;;7.10;100.00
46347;BME280;32057;47.830;19.046;2023-04-22T04:22:38;100092.13;;;7.09;100.00
46347;BME280;32057;47.830;19.046;2023-04-22T04:25:04;100088.91;;;7.16;100.00
46347;BME280;32057;47.830;19.046;2023-04-22T04:27:31;100093.47;;;7.25;100.00
46347;BME280;32057;47.830;19.046;2023-04-22T04:29:57;100092.72;;;7.29;100.00
46347;BME280;32057;47.830;19.046;2023-04-22T04:32:22;100093.50;;;7.26;100.00
46347;BME280;32057;47.830;19.046;2023-04-22T04:34:49;100093.06;;;7.40;100.00
46347;BME280;32057;47.830;19.046;2023-04-22T04:37:14;100096.34;;;7.64;100.00
46347;BME280;32057;47.830;19.046;2023-04-22T04:39:40;100095.09;;;7.82;100.00
46347;BME280;32057;47.830;19.046;2023-04-22T04:42:06;100093.06;;;8.02;100.00
46347;BME280;32057;47.830;19.046;2023-04-22T04:44:31;100101.19;;;8.15;100.00
46347;BME280;32057;47.830;19.046;2023-04-22T04:46:58;100100.09;;;8.39;100.00
46347;BME280;32057;47.830;19.046;2023-04-22T04:49:23;100098.59;;;8.47;100.00
46347;BME280;32057;47.830;19.046;2023-04-22T04:51:49;100107.00;;;9.10;100.00
46347;BME280;32057;47.830;19.046;2023-04-22T04:54:15;100102.25;;;9.71;100.00
46347;BME280;32057;47.830;19.046;2023-04-22T04:56:40;100107.03;;;9.95;98.70
46347;BME280;32057;47.830;19.046;2023-04-22T04:59:06;100108.22;;;10.12;97.63
46347;BME280;32057;47.830;19.046;2023-04-22T05:01:31;100105.34;;;10.44;97.16
46347;BME280;32057;47.830;19.046;2023-04-22T05:03:57;100100.94;;;10.40;96.75
46347;BME280;32057;47.830;19.046;2023-04-22T05:06:22;100104.31;;;10.33;97.51
46347;BME280;32057;47.830;19.046;2023-04-22T05:08:48;100109.94;;;10.12;99.37
46347;BME280;32057;47.830;19.046;2023-04-22T05:11:13;100109.00;;;10.08;100.00
46347;BME280;32057;47.830;19.046;2023-04-22T05:13:38;100110.69;;;10.06;100.00
46347;BME280;32057;47.830;19.046;2023-04-22T05:16:04;100105.50;;;10.06;100.00
46347;BME280;32057;47.830;19.046;2023-04-22T05:18:30;100110.00;;;10.15;100.00
46347;BME280;32057;47.830;19.046;2023-04-22T05:20:55;100103.31;;;10.28;100.00
46347;BME280;32057;47.830;19.046;2023-04-22T05:23:23;100108.75;;;10.39;100.00
46347;BME280;32057;47.830;19.046;2023-04-22T05:25:49;100100.31;;;10.53;100.00
46347;BME280;32057;47.830;19.046;2023-04-22T05:28:14;100105.81;;;10.70;100.00
46347;BME280;32057;47.830;19.046;2023-04-22T05:30:40;100102.59;;;10.87;100.00
46347;BME280;32057;47.830;19.046;2023-04-22T05:33:05;100108.72;;;10.90;96.74
46347;BME280;32057;47.830;19.046;2023-04-22T05:35:33;100106.22;;;10.98;96.17
46347;BME280;32057;47.830;19.046;2023-04-22T05:37:58;100107.28;;;11.11;93.57
46347;BME280;32057;47.830;19.046;2023-04-22T05:40:23;100105.41;;;11.01;96.87
46347;BME280;32057;47.830;19.046;2023-04-22T05:42:49;100107.50;;;11.26;96.52
46347;BME280;32057;47.830;19.046;2023-04-22T05:45:14;100103.50;;;11.51;92.09
46347;BME280;32057;47.830;19.046;2023-04-22T05:47:40;100107.28;;;11.78;90.32
46347;BME280;32057;47.830;19.046;2023-04-22T05:50:06;100106.94;;;12.21;89.56
46347;BME280;32057;47.830;19.046;2023-04-22T05:52:31;100104.59;;;12.51;89.85
46347;BME280;32057;47.830;19.046;2023-04-22T05:54:56;100104.81;;;12.74;88.36
46347;BME280;32057;47.830;19.046;2023-04-22T05:57:22;100104.94;;;12.94;88.44
46347;BME280;32057;47.830;19.046;2023-04-22T05:59:47;100105.09;;;13.18;84.74
46347;BME280;32057;47.830;19.046;2023-04-22T06:02:13;100113.03;;;13.31;80.18
46347;BME280;32057;47.830;19.046;2023-04-22T06:04:40;100107.78;;;13.28;74.22
46347;BME280;32057;47.830;19.046;2023-04-22T06:07:05;100106.19;;;13.55;73.96
46347;BME280;32057;47.830;19.046;2023-04-22T06:09:30;100103.69;;;13.87;75.06
46347;BME280;32057;47.830;19.046;2023-04-22T06:11:56;100106.38;;;14.10;75.52
46347;BME280;32057;47.830;19.046;2023-04-22T06:14:22;100102.06;;;14.26;72.45
46347;BME280;32057;47.830;19.046;2023-04-22T06:16:47;100102.97;;;14.48;68.00
46347;BME280;32057;47.830;19.046;2023-04-22T06:19:14;100100.38;;;14.64;65.77
46347;BME280;32057;47.830;19.046;2023-04-22T06:21:40;100107.34;;;14.79;60.93
46347;BME280;32057;47.830;19.046;2023-04-22T06:24:06;100104.72;;;14.92;60.88
46347;BME280;32057;47.830;19.046;2023-04-22T06:26:33;100103.84;;;15.12;59.12
46347;BME280;32057;47.830;19.046;2023-04-22T06:29:00;100102.91;;;15.25;59.04
46347;BME280;32057;47.830;19.046;2023-04-22T06:31:27;100110.75;;;15.34;59.65
46347;BME280;32057;47.830;19.046;2023-04-22T06:33:52;100097.63;;;15.38;58.17
46347;BME280;32057;47.830;19.046;2023-04-22T06:36:17;100097.59;;;15.53;61.14
46347;BME280;32057;47.830;19.046;2023-04-22T06:38:43;100099.28;;;15.68;57.79
46347;BME280;32057;47.830;19.046;2023-04-22T06:41:08;100099.25;;;15.71;58.30
46347;BME280;32057;47.830;19.046;2023-04-22T06:43:34;100101.00;;;15.83;56.35
46347;BME280;32057;47.830;19.046;2023-04-22T06:46:00;100099.19;;;15.94;58.04
46347;BME280;32057;47.830;19.046;2023-04-22T06:48:25;100105.25;;;16.07;53.23
46347;BME280;32057;47.830;19.046;2023-04-22T06:50:51;100099.94;;;16.11;52.03
46347;BME280;32057;47.830;19.046;2023-04-22T06:53:17;100095.47;;;16.29;54.29
46347;BME280;32057;47.830;19.046;2023-04-22T06:55:42;100101.47;;;16.48;56.29
46347;BME280;32057;47.830;19.046;2023-04-22T06:58:07;100099.59;;;16.62;53.96
46347;BME280;32057;47.830;19.046;2023-04-22T07:00:33;100093.41;;;16.71;50.03
46347;BME280;32057;47.830;19.046;2023-04-22T07:02:58;100096.13;;;16.57;52.19
46347;BME280;32057;47.830;19.046;2023-04-22T07:05:24;100100.44;;;16.67;56.69
46347;BME280;32057;47.830;19.046;2023-04-22T07:07:49;100100.28;;;16.87;58.72
46347;BME280;32057;47.830;19.046;2023-04-22T07:10:15;100095.81;;;16.97;52.60
46347;BME280;32057;47.830;19.046;2023-04-22T07:12:41;100099.34;;;16.95;50.60
46347;BME280;32057;47.830;19.046;2023-04-22T07:15:07;100100.16;;;17.03;50.81
46347;BME280;32057;47.830;19.046;2023-04-22T07:17:32;100102.69;;;17.14;52.72
46347;BME280;32057;47.830;19.046;2023-04-22T07:19:58;100099.91;;;17.27;53.18
46347;BME280;32057;47.830;19.046;2023-04-22T07:22:24;100102.28;;;17.49;56.47
46347;BME280;32057;47.830;19.046;2023-04-22T07:24:49;100105.59;;;17.65;54.94
46347;BME280;32057;47.830;19.046;2023-04-22T07:27:15;100102.78;;;17.82;54.18
46347;BME280;32057;47.830;19.046;2023-04-22T07:29:41;100103.56;;;17.90;50.55
46347;BME280;32057;47.830;19.046;2023-04-22T07:32:06;100094.72;;;17.96;46.93
46347;BME280;32057;47.830;19.046;2023-04-22T07:34:32;100095.53;;;17.99;50.02
46347;BME280;32057;47.830;19.046;2023-04-22T07:36:57;100093.78;;;18.01;38.80
46347;BME280;32057;47.830;19.046;2023-04-22T07:39:23;100097.28;;;18.00;44.35
46347;BME280;32057;47.830;19.046;2023-04-22T07:41:48;100095.28;;;18.18;47.56
46347;BME280;32057;47.830;19.046;2023-04-22T07:44:15;100095.09;;;18.30;44.83
46347;BME280;32057;47.830;19.046;2023-04-22T07:46:45;100097.63;;;18.39;43.24
46347;BME280;32057;47.830;19.046;2023-04-22T07:49:11;100099.09;;;18.56;39.89
46347;BME280;32057;47.830;19.046;2023-04-22T07:51:38;100094.56;;;18.64;38.82
46347;BME280;32057;47.830;19.046;2023-04-22T07:54:04;100095.44;;;18.63;39.42
46347;BME280;32057;47.830;19.046;2023-04-22T07:56:29;100094.59;;;18.61;38.33
46347;BME280;32057;47.830;19.046;2023-04-22T07:58:55;100094.50;;;18.67;39.90
46347;BME280;32057;47.830;19.046;2023-04-22T08:01:20;100092.72;;;18.69;39.72
46347;BME280;32057;47.830;19.046;2023-04-22T08:03:45;100092.72;;;18.69;38.39
46347;BME280;32057;47.830;19.046;2023-04-22T08:06:11;100093.41;;;18.83;39.99
46347;BME280;32057;47.830;19.046;2023-04-22T08:08:36;100088.03;;;18.89;38.42
46347;BME280;32057;47.830;19.046;2023-04-22T08:11:02;100087.94;;;18.93;38.45
46347;BME280;32057;47.830;19.046;2023-04-22T08:13:27;100093.94;;;19.01;40.12
46347;BME280;32057;47.830;19.046;2023-04-22T08:15:53;100095.63;;;19.05;40.45
46347;BME280;32057;47.830;19.046;2023-04-22T08:18:18;100086.78;;;19.09;38.42
46347;BME280;32057;47.830;19.046;2023-04-22T08:20:45;100088.53;;;19.10;38.39
46347;BME280;32057;47.830;19.046;2023-04-22T08:23:11;100094.66;;;19.10;36.72
46347;BME280;32057;47.830;19.046;2023-04-22T08:25:36;100092.81;;;19.16;35.54
46347;BME280;32057;47.830;19.046;2023-04-22T08:28:02;100091.97;;;19.15;36.41
46347;BME280;32057;47.830;19.046;2023-04-22T08:30:27;100095.31;;;19.23;38.44
46347;BME280;32057;47.830;19.046;2023-04-22T08:32:53;100097.78;;;19.31;40.98
46347;BME280;32057;47.830;19.046;2023-04-22T08:35:19;100096.59;;;19.47;37.26
46347;BME280;32057;47.830;19.046;2023-04-22T08:37:44;100100.84;;;19.55;35.29
46347;BME280;32057;47.830;19.046;2023-04-22T08:40:10;100095.56;;;19.55;39.28
46347;BME280;32057;47.830;19.046;2023-04-22T08:42:36;100092.97;;;19.53;40.49
46347;BME280;32057;47.830;19.046;2023-04-22T08:45:02;100089.41;;;19.54;37.73
46347;BME280;32057;47.830;19.046;2023-04-22T08:47:28;100094.53;;;19.63;36.87
46347;BME280;32057;47.830;19.046;2023-04-22T08:49:55;100089.06;;;19.73;36.62
46347;BME280;32057;47.830;19.046;2023-04-22T08:52:21;100090.75;;;19.77;35.55
46347;BME280;32057;47.830;19.046;2023-04-22T08:54:46;100092.38;;;19.82;36.89
46347;BME280;32057;47.830;19.046;2023-04-22T08:57:13;100091.75;;;19.71;32.42
46347;BME280;32057;47.830;19.046;2023-04-22T08:59:40;100089.13;;;19.71;32.51
46347;BME280;32057;47.830;19.046;2023-04-22T09:02:12;100081.94;;;19.78;36.00
46347;BME280;32057;47.830;19.046;2023-04-22T09:04:39;100090.56;;;19.86;39.94
46347;BME280;32057;47.830;19.046;2023-04-22T09:07:07;100087.81;;;19.90;37.65
46347;BME280;32057;47.830;19.046;2023-04-22T09:09:33;100081.53;;;19.96;37.24
46347;BME280;32057;47.830;19.046;2023-04-22T09:11:59;100079.81;;;19.95;38.07
46347;BME280;32057;47.830;19.046;2023-04-22T09:14:25;100077.06;;;19.98;39.34
46347;BME280;32057;47.830;19.046;2023-04-22T09:16:51;100080.34;;;20.09;37.14
46347;BME280;32057;47.830;19.046;2023-04-22T09:19:16;100074.75;;;20.23;36.90
46347;BME280;32057;47.830;19.046;2023-04-22T09:21:42;100078.06;;;20.32;36.55
46347;BME280;32057;47.830;19.046;2023-04-22T09:24:10;100074.44;;;20.36;36.73
46347;BME280;32057;47.830;19.046;2023-04-22T09:26:39;100071.94;;;20.31;38.66
46347;BME280;32057;47.830;19.046;2023-04-22T09:29:06;100071.00;;;20.32;38.37
46347;BME280;32057;47.830;19.046;2023-04-22T09:31:34;100075.94;;;20.47;40.24
46347;BME280;32057;47.830;19.046;2023-04-22T09:34:02;100067.91;;;20.50;36.73
46347;BME280;32057;47.830;19.046;2023-04-22T09:36:29;100074.97;;;20.50;35.74
46347;BME280;32057;47.830;19.046;2023-04-22T09:39:00;100071.44;;;20.51;36.46
46347;BME280;32057;47.830;19.046;2023-04-22T09:41:29;100066.31;;;20.45;34.11
46347;BME280;32057;47.830;19.046;2023-04-22T09:43:56;100070.03;;;20.36;35.16
46347;BME280;32057;47.830;19.046;2023-04-22T09:46:23;100061.38;;;20.31;37.51
46347;BME280;32057;47.830;19.046;2023-04-22T09:48:50;100060.91;;;20.49;39.21
46347;BME280;32057;47.830;19.046;2023-04-22T09:51:17;100061.59;;;20.56;36.92
46347;BME280;32057;47.830;19.046;2023-04-22T09:53:43;100051.47;;;20.75;39.09
46347;BME280;32057;47.830;19.046;2023-04-22T09:56:09;100053.53;;;20.64;38.81
46347;BME280;32057;47.830;19.046;2023-04-22T09:58:41;100045.91;;;20.86;40.40
46347;BME280;32057;47.830;19.046;2023-04-22T10:01:07;100041.88;;;21.04;40.34
46347;BME280;32057;47.830;19.046;2023-04-22T10:03:32;100039.09;;;21.08;39.36
46347;BME280;32057;47.830;19.046;2023-04-22T10:05:58;100037.28;;;21.11;37.33
46347;BME280;32057;47.830;19.046;2023-04-22T10:08:23;100034.44;;;21.18;35.99
46347;BME280;32057;47.830;19.046;2023-04-22T10:10:49;100029.53;;;21.04;37.98
46347;BME280;32057;47.830;19.046;2023-04-22T10:13:14;100032.78;;;21.14;39.07
46347;BME280;32057;47.830;19.046;2023-04-22T10:15:51;100020.31;;;21.19;38.36
46347;BME280;32057;47.830;19.046;2023-04-22T10:18:23;100025.31;;;21.28;36.96
46347;BME280;32057;47.830;19.046;2023-04-22T10:20:51;100025.41;;;21.25;36.15
46347;BME280;32057;47.830;19.046;2023-04-22T10:23:19;100024.31;;;21.33;37.23
46347;BME280;32057;47.830;19.046;2023-04-22T10:25:46;100020.19;;;21.22;35.67
46347;BME280;32057;47.830;19.046;2023-04-22T10:28:15;100017.84;;;21.13;32.68
46347;BME280;32057;47.830;19.046;2023-04-22T10:30:41;100020.66;;;21.07;36.18
46347;BME280;32057;47.830;19.046;2023-04-22T10:41:29;100003.56;;;21.50;36.66
46347;BME280;32057;47.830;19.046;2023-04-22T10:43:56;99999.31;;;21.73;34.79
46347;BME280;32057;47.830;19.046;2023-04-22T10:49:15;99993.31;;;21.67;32.42
46347;BME280;32057;47.830;19.046;2023-04-22T10:51:50;99990.47;;;21.74;33.91
46347;BME280;32057;47.830;19.046;2023-04-22T10:57:11;99982.69;;;21.97;37.61
46347;BME280;32057;47.830;19.046;2023-04-22T10:59:41;99979.50;;;22.13;37.65
46347;BME280;32057;47.830;19.046;2023-04-22T11:02:07;99982.72;;;22.24;35.41
46347;BME280;32057;47.830;19.046;2023-04-22T11:04:33;99985.84;;;22.37;37.22
46347;BME280;32057;47.830;19.046;2023-04-22T11:09:39;99983.38;;;22.31;31.87
46347;BME280;32057;47.830;19.046;2023-04-22T11:15:21;99975.78;;;21.92;32.57
46347;BME280;32057;47.830;19.046;2023-04-22T11:17:50;99978.22;;;22.26;36.17
46347;BME280;32057;47.830;19.046;2023-04-22T11:20:16;99984.47;;;22.50;34.96
46347;BME280;32057;47.830;19.046;2023-04-22T11:22:44;99972.09;;;22.51;31.77
46347;BME280;32057;47.830;19.046;2023-04-22T11:25:10;99970.47;;;22.46;30.51
46347;BME280;32057;47.830;19.046;2023-04-22T11:27:37;99977.16;;;22.32;30.35
46347;BME280;32057;47.830;19.046;2023-04-22T11:30:08;99977.59;;;22.44;35.42
46347;BME280;32057;47.830;19.046;2023-04-22T11:32:39;99985.88;;;22.35;33.58
46347;BME280;32057;47.830;19.046;2023-04-22T11:35:10;99985.53;;;21.91;33.97
46347;BME280;32057;47.830;19.046;2023-04-22T11:40:09;99991.09;;;21.22;35.04
46347;BME280;32057;47.830;19.046;2023-04-22T11:42:35;99989.81;;;21.06;35.75
46347;BME280;32057;47.830;19.046;2023-04-22T11:45:01;99985.50;;;21.02;34.82
46347;BME280;32057;47.830;19.046;2023-04-22T11:47:30;99993.84;;;20.88;34.54
46347;BME280;32057;47.830;19.046;2023-04-22T11:49:56;99989.91;;;20.70;35.12
46347;BME280;32057;47.830;19.046;2023-04-22T11:52:23;99991.59;;;20.37;33.55
46347;BME280;32057;47.830;19.046;2023-04-22T11:54:49;99989.84;;;20.37;34.35
46347;BME280;32057;47.830;19.046;2023-04-22T11:57:15;99986.53;;;20.29;36.26
46347;BME280;32057;47.830;19.046;2023-04-22T11:59:42;99980.72;;;20.15;36.75
46347;BME280;32057;47.830;19.046;2023-04-22T12:02:08;99986.91;;;20.14;38.18
46347;BME280;32057;47.830;19.046;2023-04-22T12:04:38;99994.00;;;20.12;39.81
46347;BME280;32057;47.830;19.046;2023-04-22T12:07:04;99981.75;;;20.09;35.11
46347;BME280;32057;47.830;19.046;2023-04-22T12:09:30;99988.63;;;20.15;40.33
46347;BME280;32057;47.830;19.046;2023-04-22T12:11:55;99993.88;;;20.16;39.78
46347;BME280;32057;47.830;19.046;2023-04-22T12:14:30;99988.69;;;20.13;39.75
46347;BME280;32057;47.830;19.046;2023-04-22T12:16:55;99983.69;;;20.01;38.32
46347;BME280;32057;47.830;19.046;2023-04-22T12:19:30;99988.75;;;20.10;39.82
46347;BME280;32057;47.830;19.046;2023-04-22T12:21:56;99982.13;;;20.29;38.61
46347;BME280;32057;47.830;19.046;2023-04-22T12:24:29;99971.88;;;20.52;38.53
46347;BME280;32057;47.830;19.046;2023-04-22T12:26:55;99979.25;;;20.73;37.48
46347;BME280;32057;47.830;19.046;2023-04-22T12:29:31;99974.53;;;20.84;40.78
46347;BME280;32057;47.830;19.046;2023-04-22T12:31:57;99967.81;;;21.04;40.43
46347;BME280;32057;47.830;19.046;2023-04-22T12:34:22;99976.22;;;21.18;36.27
46347;BME280;32057;47.830;19.046;2023-04-22T12:36:48;99967.88;;;21.32;35.15
46347;BME280;32057;47.830;19.046;2023-04-22T12:39:13;99961.72;;;21.32;33.86
46347;BME280;32057;47.830;19.046;2023-04-22T12:41:39;99955.81;;;21.53;40.42
46347;BME280;32057;47.830;19.046;2023-04-22T12:44:05;99960.41;;;21.46;34.03
46347;BME280;32057;47.830;19.046;2023-04-22T12:46:30;99967.00;;;21.32;34.31
46347;BME280;32057;47.830;19.046;2023-04-22T12:48:56;99956.56;;;20.97;33.59
46347;BME280;32057;47.830;19.046;2023-04-22T12:51:22;99957.19;;;20.74;35.75
46347;BME280;32057;47.830;19.046;2023-04-22T12:53:47;99965.22;;;20.71;35.17
46347;BME280;32057;47.830;19.046;2023-04-22T12:56:13;99957.56;;;20.60;36.97